Airfield :
LOGIN :

Register | Disclaimer

   EN    FR    IT 

 










Legend :    VFR   Marginal VFR   IFR   Intensive IFR   Very Intensive IFR
Visi :
Ceiling :
>= 8 km
>= 3000ft
5 to 8 km
1000 to 3000 ft
1500m to 5 km
500 to 1000 ft
800 to 1500m
200 to 500 ft
< 800m
< 200 ft
Symbols :   Thunderstorms  Fog  Heavy snow  Heavy precipitations  Wind > 20 kt
SIGMETs :     Misc.  Thunderstorms  Icing  Turbulence  Mountain Waves  Volcanic Ashes






- Airport Elevation : 116 ft
- IATA code : ISC


EGHE - Scilly Isles / St Mary's

CURRENT METAR :
  • 281050Z 24023KT 9000 FEW010 SCT020 13/09 Q1003

EXPIRED METARs :
  • 281020Z 23022KT 8000 VCSH FEW010 SCT020 12/10 Q1003
  • 280950Z 24019KT 8000 VCSH FEW010 SCT020 12/10 Q1003
  • 280920Z 24015KT 8000 VCSH SCT020 12/09 Q1002
  • 280850Z 24021KT 9999 VCSH FEW025 SCT040 12/08 Q1002
  • 280820Z 24021KT 9999 FEW025 12/08 Q1002

TAF TAF EGHE
Valid from the 28 at 09:00 until the 28 at 18:00 UTC


280800Z 2809/2818 24020KT 9999 SCT020
TEMPO 2809/2818 27023G35KT 7000 SHRA
PROB30
TEMPO 2809/2818 3000 +SHRA TSRA BKN012CB



MET'MAP, your aeronautical weather chart ! - Copyright ORBIFLY December 2007 - Disclaimer

ORBIFLY MET'MAP TEAM :

Programming & Development : Alexandra Zaïnal
Concept & original design : Baudouin d'Aumeries
Assistance for programming : Marc-Olivier Méhu
Technical & hardware support : Manuel Goepfert

Contact : metmap@orbifly.com




SOURCES & CREDITS :

   NOAA